Time;durP1;ratioP1;P1;durP2;ratioP2;P2;SDS_P1;SDS_P2;PMS_P1;PMS_P2;Temp;Humidity;BMP_temperature;BMP_pressure;BME280_temperature;BME280_humidity;BME280_pressure;Samples;Min_cycle;Max_cycle;Signal;HPM_P1;HPM_P2
2021/12/05 00:24:07;;;;;;;11.87;3.77;;;5.00;99.40;;;;;;5018304;28;20026;-81
2021/12/05 00:26:34;;;;;;;15.43;3.73;;;5.00;99.40;;;;;;5019162;28;20075;-82
2021/12/05 00:29:30;;;;;;;14.80;3.67;;;5.00;99.40;;;;;;5034594;28;20021;-81
2021/12/05 01:07:13;;;;;;;21.93;3.50;;;4.70;99.10;;;;;;5035187;28;20368;-82
2021/12/05 01:09:52;;;;;;;20.37;2.90;;;4.80;99.10;;;;;;5020771;28;20283;-82
2021/12/05 01:17:25;;;;;;;13.53;3.10;;;4.80;99.10;;;;;;5033976;28;20030;-82
2021/12/05 01:19:52;;;;;;;9.57;2.70;;;4.80;99.00;;;;;;5016939;28;20021;-82
2021/12/05 01:22:20;;;;;;;16.47;3.80;;;4.80;98.90;;;;;;5034838;28;20017;-82
2021/12/05 01:24:59;;;;;;;12.23;3.33;;;4.80;98.80;;;;;;5017010;28;20076;-82
2021/12/05 01:30:18;;;;;;;18.33;3.13;;;4.90;98.60;;;;;;5034249;28;20036;-82
2021/12/05 01:32:57;;;;;;;11.57;2.37;;;4.90;98.50;;;;;;5033555;28;20457;-81
2021/12/05 01:38:27;;;;;;;14.15;2.80;;;4.80;98.40;;;;;;5018433;28;20037;-81
2021/12/05 01:54:18;;;;;;;14.17;2.67;;;4.90;98.30;;;;;;5020334;28;20054;-81
2021/12/05 02:34:38;;;;;;;13.70;2.93;;;4.60;98.30;;;;;;5037370;28;20033;-82
2021/12/05 02:42:36;;;;;;;10.77;2.83;;;4.60;98.40;;;;;;5036317;28;20546;-82
2021/12/05 02:45:06;;;;;;;17.83;3.60;;;4.50;98.40;;;;;;5003064;28;20522;-82
2021/12/05 02:47:34;;;;;;;14.50;3.47;;;4.50;98.40;;;;;;5018501;28;20373;-82
2021/12/05 02:50:04;;;;;;;13.33;4.20;;;4.50;98.40;;;;;;5017301;28;20025;-82
2021/12/05 02:52:33;;;;;;;15.50;3.20;;;4.50;98.40;;;;;;5035807;28;20032;-83
2021/12/05 02:55:09;;;;;;;15.77;2.90;;;4.50;98.40;;;;;;5017977;28;20037;-81
2021/12/05 03:00:34;;;;;;;20.50;3.27;;;4.60;98.50;;;;;;5019449;28;20040;-81
2021/12/05 03:03:00;;;;;;;17.87;4.10;;;4.50;98.50;;;;;;5018126;28;20014;-81
2021/12/05 03:05:26;;;;;;;13.70;4.57;;;4.50;98.50;;;;;;5035183;28;20030;-81
2021/12/05 03:07:58;;;;;;;17.77;3.43;;;4.50;98.60;;;;;;5018109;28;20083;-81
2021/12/05 03:10:23;;;;;;;15.53;3.80;;;4.50;98.50;;;;;;5001991;28;20028;-81
2021/12/05 03:12:50;;;;;;;19.73;3.50;;;4.50;98.60;;;;;;5017791;28;20033;-81
2021/12/05 03:15:18;;;;;;;23.77;4.27;;;4.50;98.50;;;;;;5035670;28;20404;-81
2021/12/05 03:17:44;;;;;;;15.33;4.07;;;4.50;98.40;;;;;;5017594;28;20068;-81
2021/12/05 03:20:13;;;;;;;11.53;3.47;;;4.50;98.50;;;;;;5017473;28;20053;-82
2021/12/05 03:22:39;;;;;;;17.20;3.60;;;4.50;98.50;;;;;;5017537;28;20017;-81
2021/12/05 03:25:06;;;;;;;13.87;3.17;;;4.50;98.50;;;;;;5017746;28;20031;-81
2021/12/05 03:27:34;;;;;;;14.73;3.33;;;4.50;98.50;;;;;;5035324;28;20477;-81
2021/12/05 03:30:01;;;;;;;15.13;3.43;;;4.40;98.50;;;;;;5018049;28;20018;-81
2021/12/05 03:32:27;;;;;;;16.57;3.93;;;4.40;98.60;;;;;;5035181;28;20029;-81
2021/12/05 03:34:53;;;;;;;16.50;3.37;;;4.40;98.60;;;;;;5017516;28;20040;-80
2021/12/05 03:37:19;;;;;;;16.40;3.30;;;4.40;98.60;;;;;;5001361;28;20453;-81
2021/12/05 03:39:44;;;;;;;15.00;3.60;;;4.40;98.60;;;;;;5035329;28;20375;-81
2021/12/05 03:42:10;;;;;;;14.33;2.47;;;4.40;98.70;;;;;;5017109;28;20489;-82
2021/12/05 03:44:37;;;;;;;22.27;4.27;;;4.40;98.70;;;;;;5017165;28;20090;-81
2021/12/05 03:47:06;;;;;;;15.33;3.97;;;4.40;98.70;;;;;;5034969;28;20021;-82
2021/12/05 03:49:34;;;;;;;12.37;2.60;;;4.40;98.80;;;;;;5034256;28;20044;-81
2021/12/05 03:52:08;;;;;;;12.07;2.87;;;4.30;98.80;;;;;;5001012;28;20116;-82
2021/12/05 03:54:34;;;;;;;17.40;3.30;;;4.30;98.90;;;;;;5034468;28;20073;-81
2021/12/05 03:57:02;;;;;;;12.27;2.80;;;4.40;98.90;;;;;;5017547;28;20456;-82
2021/12/05 03:59:28;;;;;;;15.70;2.97;;;4.40;98.90;;;;;;5017510;28;20097;-82
2021/12/05 04:01:55;;;;;;;12.63;2.70;;;4.40;99.00;;;;;;5000071;28;20030;-82
2021/12/05 04:04:21;;;;;;;15.07;3.33;;;4.40;99.00;;;;;;5016900;28;20020;-82
2021/12/05 04:06:47;;;;;;;12.77;2.73;;;4.40;99.00;;;;;;5035108;28;20100;-82
2021/12/05 04:09:15;;;;;;;12.93;3.07;;;4.50;99.10;;;;;;5016995;28;20117;-80
2021/12/05 04:11:46;;;;;;;12.63;4.03;;;4.50;99.10;;;;;;5034172;28;20013;-83
2021/12/05 04:14:14;;;;;;;11.97;2.40;;;4.50;99.10;;;;;;5034388;28;20041;-82
2021/12/05 04:16:42;;;;;;;11.17;2.80;;;4.50;99.10;;;;;;5034550;28;20064;-82
2021/12/05 04:19:08;;;;;;;8.57;2.40;;;4.50;99.10;;;;;;5035208;28;20033;-83
2021/12/05 04:21:36;;;;;;;13.03;3.03;;;4.50;99.10;;;;;;5016541;28;20021;-82
2021/12/05 04:24:05;;;;;;;15.40;3.53;;;4.60;99.10;;;;;;5034674;28;20471;-82
2021/12/05 04:26:31;;;;;;;12.70;3.30;;;4.60;99.10;;;;;;5016375;28;20057;-82
2021/12/05 04:28:57;;;;;;;11.50;3.30;;;4.60;99.10;;;;;;5016186;28;20068;-82
2021/12/05 04:31:23;;;;;;;16.23;3.60;;;4.60;99.10;;;;;;5016426;28;20021;-82
2021/12/05 04:33:50;;;;;;;15.57;3.70;;;4.50;99.10;;;;;;5033661;28;20029;-83
2021/12/05 04:36:17;;;;;;;12.37;3.73;;;4.70;99.10;;;;;;5016141;28;20056;-82
2021/12/05 04:38:43;;;;;;;17.13;3.77;;;4.70;99.10;;;;;;4999867;28;20086;-82
2021/12/05 04:41:08;;;;;;;10.20;3.13;;;4.70;98.90;;;;;;5016109;28;20026;-82
2021/12/05 04:43:38;;;;;;;12.63;3.60;;;4.70;99.10;;;;;;5015714;28;20029;-82
2021/12/05 04:46:16;;;;;;;16.20;3.63;;;4.70;99.10;;;;;;5033776;28;20096;-82
2021/12/05 04:48:46;;;;;;;13.30;3.90;;;4.70;99.10;;;;;;5015775;28;20030;-82
2021/12/05 04:51:12;;;;;;;10.80;3.93;;;4.80;99.10;;;;;;5033120;28;20033;-82
2021/12/05 04:53:37;;;;;;;16.67;3.60;;;4.70;99.10;;;;;;5033812;28;20045;-82
2021/12/05 04:56:04;;;;;;;16.17;4.10;;;4.70;99.00;;;;;;5033457;28;20366;-82
2021/12/05 04:58:29;;;;;;;8.53;3.40;;;4.80;99.00;;;;;;4999483;28;20727;-82
2021/12/05 05:00:57;;;;;;;13.33;4.20;;;4.80;99.10;;;;;;5015826;28;20030;-81
2021/12/05 05:03:24;;;;;;;12.47;4.93;;;4.80;99.10;;;;;;4999633;28;20082;-82
2021/12/05 05:06:01;;;;;;;8.47;3.43;;;4.80;99.00;;;;;;5032251;28;20052;-82
2021/12/05 05:08:29;;;;;;;11.47;3.97;;;4.80;99.00;;;;;;5015380;28;20377;-82
2021/12/05 05:10:55;;;;;;;14.03;4.37;;;4.80;99.00;;;;;;5015735;28;20022;-81
2021/12/05 05:13:21;;;;;;;13.97;4.70;;;4.90;99.00;;;;;;5032925;28;20077;-81
2021/12/05 05:15:47;;;;;;;13.73;4.93;;;4.90;99.00;;;;;;5033931;28;20412;-82
2021/12/05 05:18:13;;;;;;;15.57;4.53;;;4.90;99.00;;;;;;5015620;28;20049;-81
2021/12/05 05:20:48;;;;;;;13.60;4.07;;;4.80;98.90;;;;;;5015068;28;20346;-81
2021/12/05 05:44:56;;;;;;;10.33;4.57;;;5.00;98.80;;;;;;5017553;28;20030;-82
2021/12/05 05:49:58;;;;;;;11.23;4.17;;;5.10;98.80;;;;;;5033262;28;20040;-82
2021/12/05 05:52:24;;;;;;;14.17;4.80;;;5.10;98.80;;;;;;5033673;28;20036;-82
2021/12/05 05:54:51;;;;;;;14.20;4.40;;;5.10;98.80;;;;;;5033643;28;20044;-83
2021/12/05 05:57:41;;;;;;;14.40;4.83;;;5.20;98.80;;;;;;5033335;28;20446;-82
2021/12/05 06:00:20;;;;;;;12.30;4.73;;;5.10;98.80;;;;;;5033822;28;20430;-82
2021/12/05 06:05:33;;;;;;;12.27;4.17;;;5.10;98.80;;;;;;5032898;28;20488;-82
2021/12/05 06:07:58;;;;;;;8.60;3.87;;;5.20;98.70;;;;;;5015150;28;20018;-82
2021/12/05 06:10:27;;;;;;;9.87;4.20;;;5.20;98.80;;;;;;5014739;28;20037;-82
2021/12/05 06:12:53;;;;;;;10.17;3.90;;;5.20;98.90;;;;;;5033029;28;20038;-82
2021/12/05 06:15:21;;;;;;;7.47;3.10;;;5.20;98.80;;;;;;5015417;28;20373;-82
2021/12/05 06:17:47;;;;;;;9.77;3.97;;;5.30;98.80;;;;;;5032870;28;20082;-81
2021/12/05 06:20:16;;;;;;;9.20;3.57;;;5.30;98.80;;;;;;5014872;28;20014;-80
2021/12/05 06:22:43;;;;;;;8.43;3.90;;;5.20;98.80;;;;;;5015107;28;20487;-81
2021/12/05 06:25:14;;;;;;;9.77;4.20;;;5.30;98.70;;;;;;5015375;28;20020;-80
2021/12/05 06:27:40;;;;;;;9.67;4.33;;;5.30;98.60;;;;;;5036881;28;20022;-81
2021/12/05 06:30:20;;;;;;;9.07;3.80;;;5.30;98.70;;;;;;5003376;28;20108;-81
2021/12/05 06:40:58;;;;;;;10.15;4.15;;;5.30;98.70;;;;;;5036200;28;20116;-81
2021/12/05 06:46:11;;;;;;;9.20;3.53;;;5.40;98.70;;;;;;5036190;28;20044;-80
2021/12/05 06:48:37;;;;;;;11.10;3.60;;;5.30;98.70;;;;;;5018208;28;20022;-80
2021/12/05 06:51:04;;;;;;;8.83;3.53;;;5.40;98.70;;;;;;5017827;28;20017;-81
2021/12/05 06:53:30;;;;;;;12.83;3.40;;;5.40;98.70;;;;;;5035584;28;20475;-81
2021/12/05 06:55:56;;;;;;;10.93;3.80;;;5.40;98.70;;;;;;5035696;28;20392;-82
2021/12/05 06:58:22;;;;;;;10.80;3.10;;;5.40;98.70;;;;;;5035628;28;20032;-81
2021/12/05 07:00:47;;;;;;;8.40;3.30;;;5.40;98.70;;;;;;5001659;28;20025;-81
2021/12/05 07:03:13;;;;;;;13.13;3.50;;;5.40;98.60;;;;;;5001509;28;20032;-82
2021/12/05 07:08:06;;;;;;;6.40;3.33;;;5.40;98.70;;;;;;5036233;28;20036;-81
2021/12/05 07:10:38;;;;;;;6.83;3.33;;;5.50;98.70;;;;;;5035587;28;20052;-81
2021/12/05 07:15:51;;;;;;;7.43;3.10;;;5.40;98.60;;;;;;5018484;28;20030;-82
2021/12/05 07:26:16;;;;;;;8.33;3.63;;;5.40;98.60;;;;;;5035211;28;20033;-81
2021/12/05 07:42:25;;;;;;;;;;;5.40;98.30;;;;;;5020222;28;20156;-80
2021/12/05 07:44:52;;;;;;;7.70;3.70;;;5.40;98.20;;;;;;5017159;28;19905;-82
2021/12/05 07:47:20;;;;;;;9.33;3.10;;;5.40;98.20;;;;;;5016790;28;20018;-82
2021/12/05 07:49:48;;;;;;;7.53;4.10;;;5.40;98.10;;;;;;5017160;28;20489;-82
2021/12/05 07:52:19;;;;;;;8.90;3.07;;;5.30;98.10;;;;;;5000973;28;20030;-81
2021/12/05 07:54:50;;;;;;;7.07;3.83;;;5.30;98.10;;;;;;5034771;28;20095;-81
2021/12/05 07:57:29;;;;;;;4.97;3.00;;;5.30;98.10;;;;;;5033243;28;20450;-82
2021/12/05 08:00:10;;;;;;;5.27;3.30;;;5.30;98.20;;;;;;5002058;28;20021;-83
2021/12/05 08:16:25;;;;;;;4.82;2.53;;;5.30;98.10;;;;;;5034565;28;20103;-82
2021/12/05 08:18:50;;;;;;;5.30;3.00;;;5.30;98.20;;;;;;5016497;28;20079;-82
2021/12/05 08:21:16;;;;;;;5.60;3.37;;;5.30;98.10;;;;;;5033575;28;20029;-82
2021/12/05 08:23:42;;;;;;;5.30;3.07;;;5.30;98.00;;;;;;5016352;28;20518;-82
2021/12/05 08:26:12;;;;;;;5.33;3.10;;;5.30;98.10;;;;;;5034058;28;20021;-82
2021/12/05 08:42:59;;;;;;;6.63;4.13;;;5.30;98.10;;;;;;5033730;28;20454;-82
2021/12/05 09:39:34;;;;;;;7.27;4.17;;;5.60;98.70;;;;;;5032656;28;20036;-82
2021/12/05 10:09:55;;;;;;;8.47;4.90;;;5.80;98.60;;;;;;4974215;28;20039;-82
2021/12/05 10:37:37;;;;;;;8.17;4.93;;;5.90;98.60;;;;;;5016163;28;20026;-82
2021/12/05 10:40:06;;;;;;;8.93;5.03;;;6.10;98.50;;;;;;5016506;28;20525;-82
2021/12/05 10:42:43;;;;;;;6.97;4.23;;;6.00;98.50;;;;;;5015931;28;20022;-82
2021/12/05 10:45:19;;;;;;;6.40;4.50;;;6.10;98.60;;;;;;4998460;28;20018;-82
2021/12/05 10:47:47;;;;;;;7.10;4.53;;;6.10;98.60;;;;;;5016451;28;20022;-82
2021/12/05 10:50:33;;;;;;;6.80;4.60;;;6.10;98.50;;;;;;5015935;28;20030;-82
2021/12/05 10:53:27;;;;;;;7.20;4.97;;;6.20;98.50;;;;;;4998146;28;20543;-82
2021/12/05 10:56:03;;;;;;;7.83;4.70;;;6.10;98.50;;;;;;5015943;28;20513;-82
2021/12/05 10:58:49;;;;;;;7.80;4.03;;;6.20;98.50;;;;;;4998547;28;20084;-82
2021/12/05 11:01:33;;;;;;;8.30;4.93;;;6.20;98.50;;;;;;4997998;28;20018;-81
2021/12/05 11:04:07;;;;;;;8.25;4.80;;;6.20;98.40;;;;;;5014990;28;20076;-82
2021/12/05 11:06:52;;;;;;;8.18;4.50;;;6.20;98.40;;;;;;5015952;28;20018;-81
2021/12/05 11:09:21;;;;;;;10.33;5.83;;;6.20;98.20;;;;;;5015813;28;20071;-81
2021/12/05 11:11:52;;;;;;;8.50;5.13;;;6.10;98.20;;;;;;5015483;28;20014;-82
2021/12/05 11:14:21;;;;;;;9.67;5.30;;;6.20;98.30;;;;;;5015495;28;20033;-82
2021/12/05 11:16:50;;;;;;;8.60;5.63;;;6.20;98.20;;;;;;4997604;28;20014;-82
2021/12/05 11:19:24;;;;;;;8.77;5.43;;;6.20;98.00;;;;;;4997567;28;20030;-79
2021/12/05 11:22:18;;;;;;;7.45;5.22;;;6.30;98.10;;;;;;5014133;28;20093;-82
2021/12/05 11:24:50;;;;;;;9.23;5.25;;;6.30;98.10;;;;;;5015191;28;20029;-82
2021/12/05 11:27:28;;;;;;;9.03;5.63;;;6.30;98.00;;;;;;4997617;28;20022;-82
2021/12/05 11:30:00;;;;;;;9.73;5.87;;;6.30;98.20;;;;;;5015442;28;20014;-82
2021/12/05 11:33:02;;;;;;;7.90;5.40;;;6.30;98.00;;;;;;5015014;28;20088;-82
2021/12/05 11:35:30;;;;;;;9.33;6.63;;;6.30;97.80;;;;;;5007869;28;20466;-82
2021/12/05 11:37:58;;;;;;;8.73;5.97;;;6.30;97.70;;;;;;5013840;28;20038;-82
2021/12/05 11:40:39;;;;;;;10.00;6.90;;;6.30;98.00;;;;;;5013686;28;20389;-81
2021/12/05 11:43:05;;;;;;;8.40;5.67;;;6.30;97.70;;;;;;5014970;28;20060;-81
2021/12/05 11:45:59;;;;;;;9.63;5.97;;;6.30;97.60;;;;;;4997174;28;20030;-82
2021/12/05 11:48:31;;;;;;;10.90;6.00;;;6.30;97.70;;;;;;5014951;28;20022;-81
2021/12/05 11:50:59;;;;;;;8.63;6.20;;;6.30;97.70;;;;;;4997023;28;20370;-82
2021/12/05 11:53:47;;;;;;;9.97;6.40;;;6.30;97.70;;;;;;4996768;28;20034;-81
2021/12/05 11:56:40;;;;;;;9.13;6.07;;;6.30;97.70;;;;;;4997600;28;20026;-82
2021/12/05 11:59:17;;;;;;;10.20;6.40;;;6.30;97.70;;;;;;4996288;28;20057;-82
2021/12/05 12:01:51;;;;;;;9.57;6.30;;;6.40;97.80;;;;;;5015130;28;20026;-82
2021/12/05 12:04:24;;;;;;;10.30;6.63;;;6.40;97.70;;;;;;4997148;28;20022;-82
2021/12/05 12:07:19;;;;;;;8.02;5.05;;;6.40;97.80;;;;;;5014761;28;20355;-82
2021/12/05 12:09:47;;;;;;;10.40;6.43;;;6.40;97.70;;;;;;5013203;28;20498;-82
2021/12/05 12:12:14;;;;;;;8.83;6.00;;;6.40;97.60;;;;;;5014351;28;20362;-81
2021/12/05 12:14:40;;;;;;;9.00;6.27;;;6.40;97.70;;;;;;5014717;28;20018;-82
2021/12/05 12:17:12;;;;;;;9.27;6.50;;;6.50;97.70;;;;;;5014296;28;20029;-81
2021/12/05 12:19:38;;;;;;;10.17;6.10;;;6.50;97.60;;;;;;5013728;28;20050;-82
2021/12/05 12:22:05;;;;;;;9.53;5.90;;;6.40;97.40;;;;;;5013310;28;20491;-82
2021/12/05 12:24:32;;;;;;;8.60;6.00;;;6.50;97.50;;;;;;4996012;28;20018;-82
2021/12/05 12:26:58;;;;;;;8.90;5.83;;;6.50;97.60;;;;;;4996996;28;20014;-82
2021/12/05 12:29:26;;;;;;;7.40;5.07;;;6.60;97.60;;;;;;4996829;28;20045;-82
2021/12/05 12:31:58;;;;;;;9.50;5.57;;;6.60;97.70;;;;;;5014147;28;20506;-82
2021/12/05 12:34:24;;;;;;;8.90;5.10;;;6.60;97.70;;;;;;5014388;28;20030;-82
2021/12/05 12:37:01;;;;;;;7.53;5.10;;;6.60;97.60;;;;;;5013313;28;20033;-82
2021/12/05 12:39:36;;;;;;;7.37;4.90;;;6.60;97.70;;;;;;5012427;28;20025;-82
2021/12/05 12:42:25;;;;;;;7.23;5.23;;;6.70;97.60;;;;;;5013900;28;20036;-82
2021/12/05 12:45:01;;;;;;;8.13;5.40;;;6.70;97.70;;;;;;5013947;28;20056;-82
2021/12/05 12:47:54;;;;;;;8.67;5.63;;;6.70;97.70;;;;;;5013596;28;20022;-82
2021/12/05 12:50:35;;;;;;;8.07;5.07;;;6.70;97.70;;;;;;4991030;28;20478;-82
2021/12/05 12:53:20;;;;;;;7.73;4.90;;;6.70;97.50;;;;;;5012540;28;20557;-82
2021/12/05 12:56:04;;;;;;;8.40;5.30;;;6.80;97.50;;;;;;5012857;28;20482;-81
2021/12/05 12:58:42;;;;;;;8.63;5.63;;;6.70;97.50;;;;;;5013370;28;20025;-81
2021/12/05 13:04:31;;;;;;;7.80;4.90;;;6.70;97.40;;;;;;5013724;28;20030;-81
2021/12/05 13:12:31;;;;;;;6.82;4.80;;;6.80;97.50;;;;;;5013591;28;20037;-81
2021/12/05 13:15:19;;;;;;;7.37;4.73;;;6.80;97.50;;;;;;5013844;28;20018;-81
2021/12/05 13:17:52;;;;;;;9.90;4.73;;;6.80;97.40;;;;;;5013299;28;20025;-82
2021/12/05 13:20:23;;;;;;;4.80;3.33;;;6.80;97.40;;;;;;5011904;28;20032;-83
2021/12/05 13:23:06;;;;;;;6.23;4.30;;;6.80;97.40;;;;;;5014123;28;20347;-82
2021/12/05 13:25:36;;;;;;;8.87;4.80;;;6.80;97.40;;;;;;5012230;28;20426;-82
2021/12/05 13:28:50;;;;;;;6.97;4.30;;;6.80;97.50;;;;;;4995708;28;20454;-81
2021/12/05 13:31:27;;;;;;;6.63;4.13;;;6.80;97.50;;;;;;5004259;28;20065;-82
2021/12/05 13:34:24;;;;;;;5.73;3.97;;;6.80;97.50;;;;;;5013791;28;20034;-81
2021/12/05 13:37:18;;;;;;;5.77;3.90;;;6.90;97.50;;;;;;5019826;28;20026;-82
2021/12/05 13:40:07;;;;;;;5.75;3.40;;;6.90;97.50;;;;;;5019743;28;20017;-82
2021/12/05 13:42:36;;;;;;;6.47;3.80;;;6.90;97.50;;;;;;5019225;28;20802;-82
2021/12/05 13:45:19;;;;;;;6.60;4.00;;;6.90;97.30;;;;;;5019892;28;20017;-82
2021/12/05 13:48:08;;;;;;;7.23;4.17;;;6.90;97.30;;;;;;5026350;28;20382;-82
2021/12/05 13:50:46;;;;;;;5.20;3.60;;;6.90;97.30;;;;;;5009124;28;20113;-82
2021/12/05 13:53:12;;;;;;;5.80;3.47;;;6.90;97.30;;;;;;5027894;28;20129;-82
2021/12/05 13:56:11;;;;;;;5.80;3.70;;;7.00;97.30;;;;;;5028221;28;20421;-82
2021/12/05 13:58:43;;;;;;;4.60;3.40;;;7.00;97.30;;;;;;5030015;28;20100;-82
2021/12/05 14:01:28;;;;;;;6.63;3.43;;;7.00;97.20;;;;;;5011637;28;20339;-82
2021/12/05 14:04:08;;;;;;;8.10;3.70;;;7.00;97.10;;;;;;5028830;28;20244;-81
2021/12/05 14:06:42;;;;;;;5.37;3.67;;;7.00;97.10;;;;;;5029930;28;20017;-82
2021/12/05 14:09:28;;;;;;;7.10;3.78;;;7.00;97.10;;;;;;5022546;28;20022;-82
2021/12/05 14:12:09;;;;;;;5.83;3.27;;;7.00;97.10;;;;;;5001831;28;20021;-82
2021/12/05 14:14:40;;;;;;;6.50;3.57;;;6.90;97.10;;;;;;5019665;28;20034;-82
2021/12/05 14:17:13;;;;;;;5.47;3.70;;;7.00;97.00;;;;;;5037555;28;20061;-82
2021/12/05 14:19:41;;;;;;;7.27;4.30;;;7.00;97.10;;;;;;5039069;28;20036;-82
2021/12/05 14:22:10;;;;;;;6.50;4.40;;;7.00;97.10;;;;;;5021397;28;20057;-83
2021/12/05 14:24:42;;;;;;;5.77;4.17;;;7.00;97.10;;;;;;5022119;28;20018;-82
2021/12/05 14:27:11;;;;;;;8.90;5.93;;;6.90;97.10;;;;;;5039157;28;20025;-82
2021/12/05 14:29:40;;;;;;;9.90;6.43;;;7.00;97.20;;;;;;5022473;28;20025;-82
2021/12/05 14:32:20;;;;;;;8.30;5.43;;;7.00;97.20;;;;;;5038996;28;20018;-83
2021/12/05 14:34:48;;;;;;;7.60;4.93;;;7.00;97.20;;;;;;5021570;28;20461;-84
2021/12/05 14:37:17;;;;;;;8.40;4.93;;;7.00;97.20;;;;;;5039125;28;20030;-86
2021/12/05 14:39:49;;;;;;;7.77;4.37;;;7.00;97.20;;;;;;5021563;28;20021;-81
2021/12/05 14:42:18;;;;;;;6.03;4.33;;;7.00;97.10;;;;;;5021511;28;20018;-83
2021/12/05 14:44:51;;;;;;;8.43;4.40;;;6.90;97.10;;;;;;5039410;28;20021;-83
2021/12/05 14:47:19;;;;;;;8.70;3.87;;;7.00;97.10;;;;;;5018145;28;20029;-83
2021/12/05 14:49:54;;;;;;;7.07;4.53;;;6.90;97.10;;;;;;5019084;28;20032;-82
2021/12/05 14:52:27;;;;;;;7.70;4.30;;;6.90;97.10;;;;;;5036068;28;20021;-84
2021/12/05 14:54:54;;;;;;;7.03;4.27;;;6.90;97.40;;;;;;5036212;28;20045;-83
2021/12/05 14:57:29;;;;;;;6.80;4.00;;;6.90;97.10;;;;;;5015991;28;20029;-83
2021/12/05 15:00:10;;;;;;;8.97;4.70;;;6.90;97.10;;;;;;5022634;28;20018;-83
2021/12/05 15:02:36;;;;;;;6.03;4.00;;;6.80;97.10;;;;;;5031462;28;20033;-83
2021/12/05 15:05:03;;;;;;;8.27;4.53;;;6.90;97.20;;;;;;5018524;28;20026;-83
2021/12/05 15:07:28;;;;;;;7.57;4.60;;;6.80;97.20;;;;;;5002282;28;20036;-83
2021/12/05 15:09:57;;;;;;;8.50;4.70;;;6.90;97.20;;;;;;5017508;28;20108;-83
2021/12/05 15:12:33;;;;;;;10.77;6.00;;;6.80;97.10;;;;;;5035012;28;20024;-82
2021/12/05 15:15:03;;;;;;;7.97;5.20;;;6.80;97.10;;;;;;5027210;28;20026;-83
2021/12/05 15:17:32;;;;;;;8.50;4.83;;;6.80;97.10;;;;;;5017938;28;20022;-83
2021/12/05 15:20:08;;;;;;;8.93;5.13;;;6.80;97.10;;;;;;5016906;28;20083;-84
2021/12/05 15:22:34;;;;;;;7.43;4.87;;;6.80;97.20;;;;;;5015472;28;20026;-82
2021/12/05 15:25:06;;;;;;;7.70;4.47;;;6.80;97.20;;;;;;4994192;28;20029;-82
2021/12/05 15:27:34;;;;;;;6.23;4.10;;;6.80;97.20;;;;;;5034005;28;20056;-82
2021/12/05 15:30:01;;;;;;;6.73;4.30;;;6.80;97.20;;;;;;5010960;28;20060;-83
2021/12/05 15:32:31;;;;;;;6.47;4.27;;;6.70;97.10;;;;;;5020769;28;20033;-83
2021/12/05 15:35:02;;;;;;;7.53;4.50;;;6.80;97.20;;;;;;5017471;28;20032;-82
2021/12/05 15:37:28;;;;;;;8.37;4.40;;;6.70;97.10;;;;;;5033723;28;20024;-83
2021/12/05 15:39:56;;;;;;;7.27;4.57;;;6.70;97.20;;;;;;5008692;28;20026;-83
2021/12/05 15:42:28;;;;;;;13.97;5.07;;;6.70;97.20;;;;;;5007941;28;20133;-84
2021/12/05 15:44:57;;;;;;;8.90;4.30;;;6.70;97.20;;;;;;5032458;28;20048;-84
2021/12/05 15:47:26;;;;;;;8.63;4.57;;;6.70;97.30;;;;;;5012256;28;20017;-84
2021/12/05 15:49:57;;;;;;;8.87;4.47;;;6.70;97.30;;;;;;5033587;28;20021;-84
2021/12/05 15:52:31;;;;;;;8.47;4.60;;;6.70;97.30;;;;;;5015912;28;20111;-83
2021/12/05 15:54:58;;;;;;;7.77;4.80;;;6.70;97.30;;;;;;5012784;28;20042;-83
2021/12/05 15:57:33;;;;;;;6.37;4.53;;;6.70;97.30;;;;;;5008483;28;20022;-85
2021/12/05 16:00:04;;;;;;;10.43;5.47;;;6.70;97.30;;;;;;5013817;28;20377;-84
2021/12/05 16:02:30;;;;;;;7.77;4.93;;;6.60;97.30;;;;;;5006200;28;20033;-83
2021/12/05 16:04:56;;;;;;;8.77;4.90;;;6.60;97.30;;;;;;5011399;28;20022;-83
2021/12/05 16:07:27;;;;;;;8.50;5.50;;;6.60;97.30;;;;;;4996635;28;20030;-84
2021/12/05 16:10:08;;;;;;;8.20;5.27;;;6.60;97.40;;;;;;4996498;28;20023;-84
2021/12/05 16:12:39;;;;;;;10.03;5.90;;;6.60;97.40;;;;;;5001773;28;20026;-83
2021/12/05 16:15:05;;;;;;;12.20;6.87;;;6.60;97.40;;;;;;4997279;28;20022;-83
2021/12/05 16:17:31;;;;;;;12.07;7.63;;;6.60;97.30;;;;;;4998228;28;20037;-83
2021/12/05 16:20:34;;;;;;;13.60;8.63;;;6.50;97.40;;;;;;5000366;28;20022;-82
2021/12/05 16:23:08;;;;;;;11.57;7.70;;;6.50;97.50;;;;;;4998123;28;20030;-83
2021/12/05 16:25:45;;;;;;;14.13;7.85;;;6.50;97.50;;;;;;5010149;28;20021;-83
2021/12/05 16:28:12;;;;;;;12.60;7.23;;;6.50;97.60;;;;;;5007334;28;20028;-82
2021/12/05 16:30:46;;;;;;;14.67;7.33;;;6.50;97.60;;;;;;5000530;28;20015;-84
2021/12/05 16:33:16;;;;;;;10.52;7.10;;;6.50;97.60;;;;;;4997879;28;20117;-81
2021/12/05 16:35:49;;;;;;;12.80;8.13;;;6.50;97.60;;;;;;5001914;28;20030;-80
2021/12/05 16:38:25;;;;;;;10.77;6.73;;;6.50;97.50;;;;;;4995822;28;20022;-85
2021/12/05 16:41:03;;;;;;;24.20;16.70;;;6.50;97.50;;;;;;5004641;28;20057;-82
2021/12/05 16:43:32;;;;;;;21.00;12.90;;;6.50;97.50;;;;;;5009052;28;20026;-81
2021/12/05 16:46:08;;;;;;;15.27;8.57;;;6.50;97.50;;;;;;5002883;28;20019;-83
2021/12/05 16:48:36;;;;;;;14.27;8.20;;;6.40;97.50;;;;;;5010373;28;20053;-82
2021/12/05 16:51:21;;;;;;;14.00;7.40;;;6.50;97.60;;;;;;5002724;28;20041;-83
2021/12/05 16:53:50;;;;;;;10.77;5.90;;;6.50;97.60;;;;;;5001299;28;20053;-84
2021/12/05 16:56:43;;;;;;;8.83;5.57;;;6.40;97.60;;;;;;5022523;28;20018;-84
2021/12/05 16:59:14;;;;;;;12.13;5.73;;;6.40;97.60;;;;;;4997406;28;20024;-83
2021/12/05 17:01:40;;;;;;;8.63;5.50;;;6.40;97.60;;;;;;5017255;28;20040;-84
2021/12/05 17:04:06;;;;;;;14.63;5.37;;;6.40;97.60;;;;;;5014313;28;20021;-83
2021/12/05 17:06:52;;;;;;;8.47;5.10;;;6.40;97.60;;;;;;5012573;28;20366;-84
2021/12/05 17:09:18;;;;;;;10.57;5.60;;;6.40;97.60;;;;;;5015835;28;20031;-84
2021/12/05 17:11:44;;;;;;;10.97;5.27;;;6.40;97.60;;;;;;5014883;28;20109;-83
2021/12/05 17:14:22;;;;;;;10.03;5.73;;;6.40;97.70;;;;;;5015194;28;20083;-83
2021/12/05 17:16:48;;;;;;;10.03;6.03;;;6.30;97.60;;;;;;5004164;28;20094;-82
2021/12/05 17:19:18;;;;;;;13.90;6.53;;;6.30;97.70;;;;;;5033646;28;20465;-81
2021/12/05 17:21:48;;;;;;;12.00;7.00;;;6.30;97.70;;;;;;5007485;28;20029;-80
2021/12/05 17:24:18;;;;;;;11.27;7.03;;;6.30;97.70;;;;;;5013154;28;20458;-80
2021/12/05 17:26:54;;;;;;;14.43;7.00;;;6.30;97.70;;;;;;5024312;28;20109;-80
2021/12/05 17:29:22;;;;;;;14.63;8.00;;;6.30;97.70;;;;;;5013265;28;20100;-79
2021/12/05 17:32:07;;;;;;;13.70;7.40;;;6.20;97.70;;;;;;5022353;28;20033;-79
2021/12/05 17:34:45;;;;;;;12.47;7.77;;;6.30;97.70;;;;;;5011713;28;20482;-80
2021/12/05 17:37:26;;;;;;;14.57;7.80;;;6.30;97.80;;;;;;5014278;28;20030;-82
2021/12/05 17:39:53;;;;;;;16.70;8.00;;;6.30;97.80;;;;;;4995682;28;20089;-81
2021/12/05 17:42:22;;;;;;;14.73;8.10;;;6.20;97.80;;;;;;5006805;28;20378;-81
2021/12/05 17:44:50;;;;;;;14.23;8.30;;;6.30;97.80;;;;;;5013638;28;20106;-81
2021/12/05 17:47:17;;;;;;;14.33;8.07;;;6.20;97.80;;;;;;5026335;28;20100;-82
2021/12/05 17:49:46;;;;;;;14.87;8.03;;;6.20;97.80;;;;;;4983246;28;20029;-81
2021/12/05 17:52:14;;;;;;;15.73;9.57;;;6.20;97.90;;;;;;5000448;28;20052;-81
2021/12/05 17:54:50;;;;;;;18.37;9.27;;;6.20;97.90;;;;;;5025829;28;20037;-82
2021/12/05 17:57:20;;;;;;;13.00;8.57;;;6.20;97.90;;;;;;4985050;28;20060;-82
2021/12/05 18:02:53;;;;;;;15.30;8.87;;;6.20;98.00;;;;;;5029138;28;20037;-82
2021/12/05 18:05:33;;;;;;;16.87;9.90;;;6.30;98.10;;;;;;5009092;28;20026;-82
2021/12/05 18:08:07;;;;;;;15.40;9.13;;;6.20;98.10;;;;;;5027204;28;20406;-81
2021/12/05 18:10:36;;;;;;;16.70;9.02;;;6.20;98.10;;;;;;5026354;28;20120;-81
2021/12/05 18:13:04;;;;;;;17.40;9.87;;;6.20;98.10;;;;;;5009083;28;20103;-82
2021/12/05 18:15:35;;;;;;;16.37;9.87;;;6.20;98.20;;;;;;5003193;28;20009;-81
2021/12/05 18:18:04;;;;;;;16.73;9.37;;;6.20;98.20;;;;;;4997504;28;20531;-81
2021/12/05 18:20:33;;;;;;;17.83;10.70;;;6.30;98.20;;;;;;5000137;28;20022;-79
2021/12/05 18:23:01;;;;;;;22.30;11.87;;;6.30;98.20;;;;;;5016599;28;20022;-82
2021/12/05 18:25:28;;;;;;;20.00;11.20;;;6.30;98.20;;;;;;5029484;28;20065;-81
2021/12/05 18:27:54;;;;;;;20.10;11.43;;;6.30;98.20;;;;;;5015568;28;20026;-81
2021/12/05 18:30:23;;;;;;;19.30;11.27;;;6.20;98.20;;;;;;5026889;28;20033;-81
2021/12/05 18:32:51;;;;;;;17.93;10.67;;;6.30;98.30;;;;;;5015853;28;20033;-82
2021/12/05 18:35:18;;;;;;;18.67;12.10;;;6.30;98.30;;;;;;5023533;28;20037;-81
2021/12/05 18:37:45;;;;;;;18.80;11.70;;;6.30;98.30;;;;;;5021944;28;20404;-82
2021/12/05 18:40:12;;;;;;;18.47;11.70;;;6.30;98.20;;;;;;5026915;28;20025;-82
2021/12/05 18:42:38;;;;;;;19.50;11.80;;;6.30;98.20;;;;;;5015706;28;20128;-82
2021/12/05 18:45:06;;;;;;;19.80;12.00;;;6.30;98.20;;;;;;5029560;28;20115;-82
2021/12/05 18:47:33;;;;;;;17.37;10.97;;;6.30;98.20;;;;;;5020949;28;20026;-81
2021/12/05 18:50:00;;;;;;;19.03;11.43;;;6.30;98.20;;;;;;5018980;28;20104;-81
2021/12/05 18:52:26;;;;;;;18.80;11.27;;;6.30;98.20;;;;;;4990041;28;20030;-82
2021/12/05 18:54:54;;;;;;;16.93;10.70;;;6.20;98.10;;;;;;5018653;28;20052;-82